sensor_id;sensor_type;location;lat;lon;timestamp;temperature;humidity
3308;DHT22;1666;48.898;9.182;2023-07-16T00:02:01;19.20;99.90
3308;DHT22;1666;48.898;9.182;2023-07-16T00:04:34;19.10;99.90
3308;DHT22;1666;48.898;9.182;2023-07-16T00:07:05;19.10;99.90
3308;DHT22;1666;48.898;9.182;2023-07-16T00:09:35;19.10;99.90
3308;DHT22;1666;48.898;9.182;2023-07-16T00:12:06;19.00;99.90
3308;DHT22;1666;48.898;9.182;2023-07-16T00:14:36;19.00;99.90
3308;DHT22;1666;48.898;9.182;2023-07-16T00:17:06;19.10;99.90
3308;DHT22;1666;48.898;9.182;2023-07-16T00:19:38;19.00;99.90
3308;DHT22;1666;48.898;9.182;2023-07-16T00:22:08;19.00;99.90
3308;DHT22;1666;48.898;9.182;2023-07-16T00:24:38;19.00;99.90
3308;DHT22;1666;48.898;9.182;2023-07-16T00:27:08;19.10;99.90
3308;DHT22;1666;48.898;9.182;2023-07-16T00:29:38;19.10;99.90
3308;DHT22;1666;48.898;9.182;2023-07-16T00:32:08;18.90;99.90
3308;DHT22;1666;48.898;9.182;2023-07-16T00:34:40;19.00;99.90
3308;DHT22;1666;48.898;9.182;2023-07-16T00:37:11;19.00;99.90
3308;DHT22;1666;48.898;9.182;2023-07-16T00:39:41;19.00;99.90
3308;DHT22;1666;48.898;9.182;2023-07-16T00:42:11;19.10;99.90
3308;DHT22;1666;48.898;9.182;2023-07-16T00:44:41;18.90;99.90
3308;DHT22;1666;48.898;9.182;2023-07-16T00:47:11;18.80;99.90
3308;DHT22;1666;48.898;9.182;2023-07-16T00:49:44;18.70;99.90
3308;DHT22;1666;48.898;9.182;2023-07-16T00:52:18;18.80;99.90
3308;DHT22;1666;48.898;9.182;2023-07-16T00:54:49;18.70;99.90
3308;DHT22;1666;48.898;9.182;2023-07-16T00:57:19;18.60;99.90
3308;DHT22;1666;48.898;9.182;2023-07-16T00:59:49;18.70;99.90
3308;DHT22;1666;48.898;9.182;2023-07-16T01:02:19;18.70;99.90
3308;DHT22;1666;48.898;9.182;2023-07-16T01:04:52;18.70;99.90
3308;DHT22;1666;48.898;9.182;2023-07-16T01:07:24;18.80;99.90
3308;DHT22;1666;48.898;9.182;2023-07-16T01:09:55;18.80;99.90
3308;DHT22;1666;48.898;9.182;2023-07-16T01:12:27;18.70;99.90
3308;DHT22;1666;48.898;9.182;2023-07-16T01:14:58;18.60;99.90
3308;DHT22;1666;48.898;9.182;2023-07-16T01:17:28;18.70;99.90
3308;DHT22;1666;48.898;9.182;2023-07-16T01:20:01;18.60;99.90
3308;DHT22;1666;48.898;9.182;2023-07-16T01:22:45;18.80;99.90
3308;DHT22;1666;48.898;9.182;2023-07-16T01:25:41;18.80;99.90
3308;DHT22;1666;48.898;9.182;2023-07-16T01:28:33;18.80;99.90
3308;DHT22;1666;48.898;9.182;2023-07-16T01:31:10;18.70;99.90
3308;DHT22;1666;48.898;9.182;2023-07-16T01:33:42;18.90;99.90
3308;DHT22;1666;48.898;9.182;2023-07-16T01:36:13;18.80;99.90
3308;DHT22;1666;48.898;9.182;2023-07-16T01:38:44;18.70;99.90
3308;DHT22;1666;48.898;9.182;2023-07-16T01:41:14;18.70;99.90
3308;DHT22;1666;48.898;9.182;2023-07-16T01:43:45;18.80;99.90
3308;DHT22;1666;48.898;9.182;2023-07-16T01:46:18;18.70;99.90
3308;DHT22;1666;48.898;9.182;2023-07-16T01:48:49;18.60;99.90
3308;DHT22;1666;48.898;9.182;2023-07-16T01:51:19;18.70;99.90
3308;DHT22;1666;48.898;9.182;2023-07-16T01:53:48;18.60;99.90
3308;DHT22;1666;48.898;9.182;2023-07-16T01:56:18;18.70;99.90
3308;DHT22;1666;48.898;9.182;2023-07-16T01:58:48;18.80;99.90
3308;DHT22;1666;48.898;9.182;2023-07-16T02:01:21;18.70;99.90
3308;DHT22;1666;48.898;9.182;2023-07-16T02:03:51;18.70;99.90
3308;DHT22;1666;48.898;9.182;2023-07-16T02:06:21;18.70;74.60
3308;DHT22;1666;48.898;9.182;2023-07-16T02:08:51;18.70;33.40
3308;DHT22;1666;48.898;9.182;2023-07-16T02:11:21;18.60;32.00
3308;DHT22;1666;48.898;9.182;2023-07-16T02:13:51;18.80;34.20
3308;DHT22;1666;48.898;9.182;2023-07-16T02:16:24;18.60;10.00
3308;DHT22;1666;48.898;9.182;2023-07-16T02:18:54;18.60;30.60
3308;DHT22;1666;48.898;9.182;2023-07-16T02:21:24;18.80;32.10
3308;DHT22;1666;48.898;9.182;2023-07-16T02:23:53;18.80;28.00
3308;DHT22;1666;48.898;9.182;2023-07-16T02:26:24;18.70;4.60
3308;DHT22;1666;48.898;9.182;2023-07-16T02:28:53;18.70;1.00
3308;DHT22;1666;48.898;9.182;2023-07-16T02:31:27;18.80;6.30
3308;DHT22;1666;48.898;9.182;2023-07-16T02:33:57;18.80;4.00
3308;DHT22;1666;48.898;9.182;2023-07-16T02:36:27;18.90;1.00
3308;DHT22;1666;48.898;9.182;2023-07-16T02:38:57;18.90;1.00
3308;DHT22;1666;48.898;9.182;2023-07-16T02:41:27;18.80;1.00
3308;DHT22;1666;48.898;9.182;2023-07-16T02:44:00;18.90;1.00
3308;DHT22;1666;48.898;9.182;2023-07-16T02:46:33;19.00;1.00
3308;DHT22;1666;48.898;9.182;2023-07-16T02:49:03;18.80;1.00
3308;DHT22;1666;48.898;9.182;2023-07-16T02:51:33;18.90;1.00
3308;DHT22;1666;48.898;9.182;2023-07-16T02:54:03;18.70;1.00
3308;DHT22;1666;48.898;9.182;2023-07-16T02:56:33;18.70;1.00
3308;DHT22;1666;48.898;9.182;2023-07-16T02:59:04;18.70;1.00
3308;DHT22;1666;48.898;9.182;2023-07-16T03:01:36;18.80;1.00
3308;DHT22;1666;48.898;9.182;2023-07-16T03:04:06;18.80;1.00
3308;DHT22;1666;48.898;9.182;2023-07-16T03:06:36;18.60;1.00
3308;DHT22;1666;48.898;9.182;2023-07-16T03:09:06;18.60;1.00
3308;DHT22;1666;48.898;9.182;2023-07-16T03:11:36;18.70;1.00
3308;DHT22;1666;48.898;9.182;2023-07-16T03:14:06;18.70;1.00
3308;DHT22;1666;48.898;9.182;2023-07-16T03:16:38;18.70;1.00
3308;DHT22;1666;48.898;9.182;2023-07-16T03:19:08;18.70;1.00
3308;DHT22;1666;48.898;9.182;2023-07-16T03:21:38;18.80;1.00
3308;DHT22;1666;48.898;9.182;2023-07-16T03:24:08;18.70;1.00
3308;DHT22;1666;48.898;9.182;2023-07-16T03:26:39;18.60;1.00
3308;DHT22;1666;48.898;9.182;2023-07-16T03:29:09;18.60;1.00
3308;DHT22;1666;48.898;9.182;2023-07-16T03:31:41;18.70;1.00
3308;DHT22;1666;48.898;9.182;2023-07-16T03:34:11;18.60;1.00
3308;DHT22;1666;48.898;9.182;2023-07-16T03:36:41;18.70;1.00
3308;DHT22;1666;48.898;9.182;2023-07-16T03:39:11;18.80;1.00
3308;DHT22;1666;48.898;9.182;2023-07-16T03:41:41;18.90;1.00
3308;DHT22;1666;48.898;9.182;2023-07-16T03:44:11;18.70;1.00
3308;DHT22;1666;48.898;9.182;2023-07-16T03:46:43;18.80;1.00
3308;DHT22;1666;48.898;9.182;2023-07-16T03:49:13;18.80;1.00
3308;DHT22;1666;48.898;9.182;2023-07-16T03:51:43;18.80;1.00
3308;DHT22;1666;48.898;9.182;2023-07-16T03:54:13;18.80;1.00
3308;DHT22;1666;48.898;9.182;2023-07-16T03:56:43;18.80;1.00
3308;DHT22;1666;48.898;9.182;2023-07-16T03:59:13;18.80;1.00
3308;DHT22;1666;48.898;9.182;2023-07-16T04:01:46;18.90;1.00
3308;DHT22;1666;48.898;9.182;2023-07-16T04:04:16;18.90;1.00
3308;DHT22;1666;48.898;9.182;2023-07-16T04:06:46;19.00;1.00
3308;DHT22;1666;48.898;9.182;2023-07-16T04:09:16;18.90;1.00
3308;DHT22;1666;48.898;9.182;2023-07-16T04:11:46;18.60;1.00
3308;DHT22;1666;48.898;9.182;2023-07-16T04:14:16;18.60;1.00
3308;DHT22;1666;48.898;9.182;2023-07-16T04:16:48;18.70;1.00
3308;DHT22;1666;48.898;9.182;2023-07-16T04:19:18;18.80;1.00
3308;DHT22;1666;48.898;9.182;2023-07-16T04:21:48;18.80;1.00
3308;DHT22;1666;48.898;9.182;2023-07-16T04:24:18;18.80;1.00
3308;DHT22;1666;48.898;9.182;2023-07-16T04:26:48;18.60;1.00
3308;DHT22;1666;48.898;9.182;2023-07-16T04:29:18;18.50;1.00
3308;DHT22;1666;48.898;9.182;2023-07-16T04:31:51;18.60;1.00
3308;DHT22;1666;48.898;9.182;2023-07-16T04:34:20;18.60;1.00
3308;DHT22;1666;48.898;9.182;2023-07-16T04:36:50;18.60;1.00
3308;DHT22;1666;48.898;9.182;2023-07-16T04:39:20;18.50;1.00
3308;DHT22;1666;48.898;9.182;2023-07-16T04:41:50;18.50;1.00
3308;DHT22;1666;48.898;9.182;2023-07-16T04:44:20;18.70;1.00
3308;DHT22;1666;48.898;9.182;2023-07-16T04:46:53;18.80;1.00
3308;DHT22;1666;48.898;9.182;2023-07-16T04:49:23;18.70;1.00
3308;DHT22;1666;48.898;9.182;2023-07-16T04:51:53;18.70;1.00
3308;DHT22;1666;48.898;9.182;2023-07-16T04:54:23;18.70;1.00
3308;DHT22;1666;48.898;9.182;2023-07-16T04:56:53;18.80;1.00
3308;DHT22;1666;48.898;9.182;2023-07-16T04:59:23;18.70;1.00
3308;DHT22;1666;48.898;9.182;2023-07-16T05:01:55;18.70;1.00
3308;DHT22;1666;48.898;9.182;2023-07-16T05:04:25;18.70;1.00
3308;DHT22;1666;48.898;9.182;2023-07-16T05:06:55;18.70;1.00
3308;DHT22;1666;48.898;9.182;2023-07-16T05:09:25;18.90;1.00
3308;DHT22;1666;48.898;9.182;2023-07-16T05:11:55;18.90;1.00
3308;DHT22;1666;48.898;9.182;2023-07-16T05:14:27;19.00;1.00
3308;DHT22;1666;48.898;9.182;2023-07-16T05:16:59;19.00;1.00
3308;DHT22;1666;48.898;9.182;2023-07-16T05:19:30;19.00;1.00
3308;DHT22;1666;48.898;9.182;2023-07-16T05:22:00;19.00;1.00
3308;DHT22;1666;48.898;9.182;2023-07-16T05:24:30;18.90;1.00
3308;DHT22;1666;48.898;9.182;2023-07-16T05:27:00;19.00;1.00
3308;DHT22;1666;48.898;9.182;2023-07-16T05:29:31;19.10;1.00
3308;DHT22;1666;48.898;9.182;2023-07-16T05:32:04;19.20;1.00
3308;DHT22;1666;48.898;9.182;2023-07-16T05:34:34;19.10;1.00
3308;DHT22;1666;48.898;9.182;2023-07-16T05:37:05;19.20;1.00
3308;DHT22;1666;48.898;9.182;2023-07-16T05:39:35;19.40;1.00
3308;DHT22;1666;48.898;9.182;2023-07-16T05:42:05;19.50;1.00
3308;DHT22;1666;48.898;9.182;2023-07-16T05:44:36;19.50;1.00
3308;DHT22;1666;48.898;9.182;2023-07-16T05:47:08;19.40;1.00
3308;DHT22;1666;48.898;9.182;2023-07-16T05:49:38;19.50;1.00
3308;DHT22;1666;48.898;9.182;2023-07-16T05:52:08;19.60;1.00
3308;DHT22;1666;48.898;9.182;2023-07-16T05:54:38;19.70;1.00
3308;DHT22;1666;48.898;9.182;2023-07-16T05:57:08;21.00;1.00
3308;DHT22;1666;48.898;9.182;2023-07-16T05:59:38;20.00;1.00
3308;DHT22;1666;48.898;9.182;2023-07-16T06:02:10;20.10;1.00
3308;DHT22;1666;48.898;9.182;2023-07-16T06:04:40;20.70;1.00
3308;DHT22;1666;48.898;9.182;2023-07-16T06:07:11;20.30;1.00
3308;DHT22;1666;48.898;9.182;2023-07-16T06:09:41;20.20;1.00
3308;DHT22;1666;48.898;9.182;2023-07-16T06:12:11;20.10;1.00
3308;DHT22;1666;48.898;9.182;2023-07-16T06:14:41;20.10;1.00
3308;DHT22;1666;48.898;9.182;2023-07-16T06:17:14;19.80;1.00
3308;DHT22;1666;48.898;9.182;2023-07-16T06:19:43;19.80;1.00
3308;DHT22;1666;48.898;9.182;2023-07-16T06:22:15;19.80;1.00
3308;DHT22;1666;48.898;9.182;2023-07-16T06:24:45;20.00;1.00
3308;DHT22;1666;48.898;9.182;2023-07-16T06:27:15;20.00;1.00
3308;DHT22;1666;48.898;9.182;2023-07-16T06:29:45;20.00;1.00
3308;DHT22;1666;48.898;9.182;2023-07-16T06:32:17;19.90;1.00
3308;DHT22;1666;48.898;9.182;2023-07-16T06:34:47;19.80;1.00
3308;DHT22;1666;48.898;9.182;2023-07-16T06:37:17;19.90;1.00
3308;DHT22;1666;48.898;9.182;2023-07-16T06:39:50;20.00;1.00
3308;DHT22;1666;48.898;9.182;2023-07-16T06:42:20;19.90;1.00
3308;DHT22;1666;48.898;9.182;2023-07-16T06:44:50;20.20;1.00
3308;DHT22;1666;48.898;9.182;2023-07-16T06:47:22;20.20;1.00
3308;DHT22;1666;48.898;9.182;2023-07-16T06:49:52;20.30;1.00
3308;DHT22;1666;48.898;9.182;2023-07-16T06:52:23;20.20;1.00
3308;DHT22;1666;48.898;9.182;2023-07-16T06:54:54;20.20;1.00
3308;DHT22;1666;48.898;9.182;2023-07-16T06:57:24;20.40;1.00
3308;DHT22;1666;48.898;9.182;2023-07-16T06:59:54;20.50;1.00
3308;DHT22;1666;48.898;9.182;2023-07-16T07:02:27;20.60;1.00
3308;DHT22;1666;48.898;9.182;2023-07-16T07:04:57;21.10;1.00
3308;DHT22;1666;48.898;9.182;2023-07-16T07:07:27;21.00;1.00
3308;DHT22;1666;48.898;9.182;2023-07-16T07:09:57;21.20;1.00
3308;DHT22;1666;48.898;9.182;2023-07-16T07:12:27;20.80;1.00
3308;DHT22;1666;48.898;9.182;2023-07-16T07:14:57;20.30;1.00
3308;DHT22;1666;48.898;9.182;2023-07-16T07:17:30;20.80;1.00
3308;DHT22;1666;48.898;9.182;2023-07-16T07:20:00;21.10;1.00
3308;DHT22;1666;48.898;9.182;2023-07-16T07:22:30;21.10;1.00
3308;DHT22;1666;48.898;9.182;2023-07-16T07:25:00;21.10;1.00
3308;DHT22;1666;48.898;9.182;2023-07-16T07:27:31;20.70;1.00
3308;DHT22;1666;48.898;9.182;2023-07-16T07:30:01;20.40;1.00
3308;DHT22;1666;48.898;9.182;2023-07-16T07:32:37;20.20;1.00
3308;DHT22;1666;48.898;9.182;2023-07-16T07:35:07;20.60;1.00
3308;DHT22;1666;48.898;9.182;2023-07-16T07:37:37;21.60;1.00
3308;DHT22;1666;48.898;9.182;2023-07-16T07:40:08;21.80;1.00
3308;DHT22;1666;48.898;9.182;2023-07-16T07:42:38;21.60;1.00
3308;DHT22;1666;48.898;9.182;2023-07-16T07:45:09;21.40;1.00
3308;DHT22;1666;48.898;9.182;2023-07-16T07:47:42;21.70;1.00
3308;DHT22;1666;48.898;9.182;2023-07-16T07:50:12;21.90;1.00
3308;DHT22;1666;48.898;9.182;2023-07-16T07:52:42;21.70;1.00
3308;DHT22;1666;48.898;9.182;2023-07-16T07:55:12;22.00;1.00
3308;DHT22;1666;48.898;9.182;2023-07-16T07:57:42;22.20;1.00
3308;DHT22;1666;48.898;9.182;2023-07-16T08:00:13;21.90;1.00
3308;DHT22;1666;48.898;9.182;2023-07-16T08:02:45;21.50;1.00
3308;DHT22;1666;48.898;9.182;2023-07-16T08:05:16;21.20;1.00
3308;DHT22;1666;48.898;9.182;2023-07-16T08:07:45;20.80;1.00
3308;DHT22;1666;48.898;9.182;2023-07-16T08:10:15;21.20;1.00
3308;DHT22;1666;48.898;9.182;2023-07-16T08:12:45;21.20;1.00
3308;DHT22;1666;48.898;9.182;2023-07-16T08:15:15;21.40;1.00
3308;DHT22;1666;48.898;9.182;2023-07-16T08:17:48;21.80;1.00
3308;DHT22;1666;48.898;9.182;2023-07-16T08:20:18;21.60;1.00
3308;DHT22;1666;48.898;9.182;2023-07-16T08:22:48;22.20;1.00
3308;DHT22;1666;48.898;9.182;2023-07-16T08:25:18;22.60;1.00
3308;DHT22;1666;48.898;9.182;2023-07-16T08:27:48;22.20;1.00
3308;DHT22;1666;48.898;9.182;2023-07-16T08:30:18;22.20;1.00
3308;DHT22;1666;48.898;9.182;2023-07-16T08:32:51;22.80;1.00
3308;DHT22;1666;48.898;9.182;2023-07-16T08:35:21;22.60;1.00
3308;DHT22;1666;48.898;9.182;2023-07-16T08:37:51;21.70;1.00
3308;DHT22;1666;48.898;9.182;2023-07-16T08:40:20;21.50;1.00
3308;DHT22;1666;48.898;9.182;2023-07-16T08:42:51;21.10;1.00
3308;DHT22;1666;48.898;9.182;2023-07-16T08:45:21;21.20;1.00
3308;DHT22;1666;48.898;9.182;2023-07-16T08:47:55;20.90;1.00
3308;DHT22;1666;48.898;9.182;2023-07-16T08:50:26;21.00;1.00
3308;DHT22;1666;48.898;9.182;2023-07-16T08:52:59;21.60;1.00
3308;DHT22;1666;48.898;9.182;2023-07-16T08:55:30;21.40;1.00
3308;DHT22;1666;48.898;9.182;2023-07-16T08:58:01;21.10;1.00
3308;DHT22;1666;48.898;9.182;2023-07-16T09:00:32;21.10;1.00
3308;DHT22;1666;48.898;9.182;2023-07-16T09:03:05;21.40;1.00
3308;DHT22;1666;48.898;9.182;2023-07-16T09:05:36;21.50;1.00
3308;DHT22;1666;48.898;9.182;2023-07-16T09:08:07;21.00;1.00
3308;DHT22;1666;48.898;9.182;2023-07-16T09:10:37;21.10;1.00
3308;DHT22;1666;48.898;9.182;2023-07-16T09:13:07;21.10;1.00
3308;DHT22;1666;48.898;9.182;2023-07-16T09:15:37;21.40;1.00
3308;DHT22;1666;48.898;9.182;2023-07-16T09:18:10;21.80;1.00
3308;DHT22;1666;48.898;9.182;2023-07-16T09:20:42;22.10;1.00
3308;DHT22;1666;48.898;9.182;2023-07-16T09:23:12;21.80;1.00
3308;DHT22;1666;48.898;9.182;2023-07-16T09:25:43;22.70;1.00
3308;DHT22;1666;48.898;9.182;2023-07-16T09:28:13;23.20;1.00
3308;DHT22;1666;48.898;9.182;2023-07-16T09:30:43;22.30;1.00
3308;DHT22;1666;48.898;9.182;2023-07-16T09:33:17;22.30;1.00
3308;DHT22;1666;48.898;9.182;2023-07-16T09:35:48;21.60;1.00
3308;DHT22;1666;48.898;9.182;2023-07-16T09:38:19;22.50;1.00
3308;DHT22;1666;48.898;9.182;2023-07-16T09:40:49;22.50;1.00
3308;DHT22;1666;48.898;9.182;2023-07-16T09:43:19;22.80;1.00
3308;DHT22;1666;48.898;9.182;2023-07-16T09:45:49;22.20;1.00
3308;DHT22;1666;48.898;9.182;2023-07-16T09:48:21;23.40;1.00
3308;DHT22;1666;48.898;9.182;2023-07-16T09:50:53;22.90;1.00
3308;DHT22;1666;48.898;9.182;2023-07-16T09:53:24;22.80;1.00
3308;DHT22;1666;48.898;9.182;2023-07-16T09:55:55;22.20;1.00
3308;DHT22;1666;48.898;9.182;2023-07-16T09:58:26;22.00;1.00
3308;DHT22;1666;48.898;9.182;2023-07-16T10:00:57;22.30;1.00
3308;DHT22;1666;48.898;9.182;2023-07-16T10:03:30;22.60;1.00
3308;DHT22;1666;48.898;9.182;2023-07-16T10:06:06;22.40;1.00
3308;DHT22;1666;48.898;9.182;2023-07-16T10:08:36;22.60;1.00
3308;DHT22;1666;48.898;9.182;2023-07-16T10:11:15;22.20;1.00
3308;DHT22;1666;48.898;9.182;2023-07-16T10:13:49;21.70;1.00
3308;DHT22;1666;48.898;9.182;2023-07-16T10:16:20;22.40;1.00
3308;DHT22;1666;48.898;9.182;2023-07-16T10:18:54;22.40;1.00
3308;DHT22;1666;48.898;9.182;2023-07-16T10:21:25;22.70;1.00
3308;DHT22;1666;48.898;9.182;2023-07-16T10:23:58;23.10;1.00
3308;DHT22;1666;48.898;9.182;2023-07-16T10:26:30;22.20;1.00
3308;DHT22;1666;48.898;9.182;2023-07-16T10:29:00;22.70;1.00
3308;DHT22;1666;48.898;9.182;2023-07-16T10:31:33;23.70;1.00
3308;DHT22;1666;48.898;9.182;2023-07-16T10:34:05;24.00;1.00
3308;DHT22;1666;48.898;9.182;2023-07-16T10:36:39;24.40;1.00
3308;DHT22;1666;48.898;9.182;2023-07-16T10:39:09;24.30;1.00
3308;DHT22;1666;48.898;9.182;2023-07-16T10:41:40;24.40;1.00
3308;DHT22;1666;48.898;9.182;2023-07-16T10:44:13;23.80;1.00
3308;DHT22;1666;48.898;9.182;2023-07-16T10:46:44;23.00;1.00
3308;DHT22;1666;48.898;9.182;2023-07-16T10:49:25;23.20;1.00
3308;DHT22;1666;48.898;9.182;2023-07-16T10:51:57;23.00;1.00
3308;DHT22;1666;48.898;9.182;2023-07-16T10:54:27;22.90;1.00
3308;DHT22;1666;48.898;9.182;2023-07-16T10:56:57;22.30;1.00
3308;DHT22;1666;48.898;9.182;2023-07-16T10:59:27;23.30;1.00
3308;DHT22;1666;48.898;9.182;2023-07-16T11:01:58;23.10;1.00
3308;DHT22;1666;48.898;9.182;2023-07-16T11:04:35;22.50;1.00
3308;DHT22;1666;48.898;9.182;2023-07-16T11:07:07;23.00;1.00
3308;DHT22;1666;48.898;9.182;2023-07-16T11:09:42;23.30;1.00
3308;DHT22;1666;48.898;9.182;2023-07-16T11:12:17;23.70;1.00
3308;DHT22;1666;48.898;9.182;2023-07-16T11:14:48;24.00;1.00
3308;DHT22;1666;48.898;9.182;2023-07-16T11:17:19;24.50;1.00
3308;DHT22;1666;48.898;9.182;2023-07-16T11:19:53;24.00;1.00
3308;DHT22;1666;48.898;9.182;2023-07-16T11:22:25;24.30;1.00
3308;DHT22;1666;48.898;9.182;2023-07-16T11:24:56;24.20;1.00
3308;DHT22;1666;48.898;9.182;2023-07-16T11:27:27;23.90;1.00
3308;DHT22;1666;48.898;9.182;2023-07-16T11:30:00;23.40;1.00
3308;DHT22;1666;48.898;9.182;2023-07-16T11:32:32;22.90;1.00
3308;DHT22;1666;48.898;9.182;2023-07-16T11:35:06;24.20;1.00
3308;DHT22;1666;48.898;9.182;2023-07-16T11:37:36;23.80;1.00
3308;DHT22;1666;48.898;9.182;2023-07-16T11:40:08;24.60;1.00
3308;DHT22;1666;48.898;9.182;2023-07-16T11:42:39;24.80;1.00
3308;DHT22;1666;48.898;9.182;2023-07-16T11:45:15;25.60;1.00
3308;DHT22;1666;48.898;9.182;2023-07-16T11:47:46;25.70;1.00
3308;DHT22;1666;48.898;9.182;2023-07-16T11:50:19;25.80;1.00
3308;DHT22;1666;48.898;9.182;2023-07-16T11:52:52;25.60;1.00
3308;DHT22;1666;48.898;9.182;2023-07-16T11:55:23;25.40;1.00
3308;DHT22;1666;48.898;9.182;2023-07-16T11:57:53;25.40;1.00
3308;DHT22;1666;48.898;9.182;2023-07-16T12:00:24;25.30;1.00
3308;DHT22;1666;48.898;9.182;2023-07-16T12:02:54;25.80;1.00
3308;DHT22;1666;48.898;9.182;2023-07-16T12:05:26;26.20;1.00
3308;DHT22;1666;48.898;9.182;2023-07-16T12:08:17;26.20;1.00
3308;DHT22;1666;48.898;9.182;2023-07-16T12:10:46;25.10;1.00
3308;DHT22;1666;48.898;9.182;2023-07-16T12:13:16;24.70;1.00
3308;DHT22;1666;48.898;9.182;2023-07-16T12:15:46;24.70;1.00
3308;DHT22;1666;48.898;9.182;2023-07-16T12:18:16;25.40;1.00
3308;DHT22;1666;48.898;9.182;2023-07-16T12:20:49;25.80;1.00
3308;DHT22;1666;48.898;9.182;2023-07-16T12:23:19;26.10;1.00
3308;DHT22;1666;48.898;9.182;2023-07-16T12:25:50;24.40;1.00
3308;DHT22;1666;48.898;9.182;2023-07-16T12:28:20;24.20;1.00
3308;DHT22;1666;48.898;9.182;2023-07-16T12:30:50;24.30;1.00
3308;DHT22;1666;48.898;9.182;2023-07-16T12:33:20;24.60;1.00
3308;DHT22;1666;48.898;9.182;2023-07-16T12:35:53;25.30;1.00
3308;DHT22;1666;48.898;9.182;2023-07-16T12:38:23;26.10;1.00
3308;DHT22;1666;48.898;9.182;2023-07-16T12:40:53;25.80;1.00
3308;DHT22;1666;48.898;9.182;2023-07-16T12:43:23;24.90;1.00
3308;DHT22;1666;48.898;9.182;2023-07-16T12:45:53;25.50;1.00
3308;DHT22;1666;48.898;9.182;2023-07-16T12:48:23;25.30;1.00
3308;DHT22;1666;48.898;9.182;2023-07-16T12:50:56;25.70;1.00
3308;DHT22;1666;48.898;9.182;2023-07-16T12:53:26;25.10;1.00
3308;DHT22;1666;48.898;9.182;2023-07-16T12:55:56;25.00;1.00
3308;DHT22;1666;48.898;9.182;2023-07-16T12:58:28;25.40;1.00
3308;DHT22;1666;48.898;9.182;2023-07-16T13:00:58;25.60;1.00
3308;DHT22;1666;48.898;9.182;2023-07-16T13:03:28;25.00;1.00
3308;DHT22;1666;48.898;9.182;2023-07-16T13:06:01;25.70;1.00
3308;DHT22;1666;48.898;9.182;2023-07-16T13:08:31;25.70;1.00
3308;DHT22;1666;48.898;9.182;2023-07-16T13:11:02;25.70;1.00
3308;DHT22;1666;48.898;9.182;2023-07-16T13:13:32;25.20;1.00
3308;DHT22;1666;48.898;9.182;2023-07-16T13:16:02;25.50;1.00
3308;DHT22;1666;48.898;9.182;2023-07-16T13:18:32;25.20;1.00
3308;DHT22;1666;48.898;9.182;2023-07-16T13:21:05;24.70;1.00
3308;DHT22;1666;48.898;9.182;2023-07-16T13:23:35;24.30;1.00
3308;DHT22;1666;48.898;9.182;2023-07-16T13:26:05;24.50;1.00
3308;DHT22;1666;48.898;9.182;2023-07-16T13:28:35;24.70;1.00
3308;DHT22;1666;48.898;9.182;2023-07-16T13:31:05;25.20;1.00
3308;DHT22;1666;48.898;9.182;2023-07-16T13:33:36;25.80;1.00
3308;DHT22;1666;48.898;9.182;2023-07-16T13:36:08;25.10;1.00
3308;DHT22;1666;48.898;9.182;2023-07-16T13:38:38;25.50;1.00
3308;DHT22;1666;48.898;9.182;2023-07-16T13:41:08;25.50;1.00
3308;DHT22;1666;48.898;9.182;2023-07-16T13:43:38;26.00;1.00
3308;DHT22;1666;48.898;9.182;2023-07-16T13:46:08;25.80;1.00
3308;DHT22;1666;48.898;9.182;2023-07-16T13:48:38;25.80;1.00
3308;DHT22;1666;48.898;9.182;2023-07-16T13:51:27;25.70;1.00
3308;DHT22;1666;48.898;9.182;2023-07-16T13:53:57;25.70;1.00
3308;DHT22;1666;48.898;9.182;2023-07-16T13:56:27;25.20;1.00
3308;DHT22;1666;48.898;9.182;2023-07-16T13:58:57;25.30;1.00
3308;DHT22;1666;48.898;9.182;2023-07-16T14:01:27;25.80;1.00
3308;DHT22;1666;48.898;9.182;2023-07-16T14:03:56;26.10;1.00
3308;DHT22;1666;48.898;9.182;2023-07-16T14:06:30;25.80;1.00
3308;DHT22;1666;48.898;9.182;2023-07-16T14:09:01;25.40;1.00
3308;DHT22;1666;48.898;9.182;2023-07-16T14:11:32;25.30;1.00
3308;DHT22;1666;48.898;9.182;2023-07-16T14:14:02;25.70;1.00
3308;DHT22;1666;48.898;9.182;2023-07-16T14:16:32;25.40;1.00
3308;DHT22;1666;48.898;9.182;2023-07-16T14:19:02;25.20;1.00
3308;DHT22;1666;48.898;9.182;2023-07-16T14:21:34;25.40;1.00
3308;DHT22;1666;48.898;9.182;2023-07-16T14:24:05;25.50;1.00
3308;DHT22;1666;48.898;9.182;2023-07-16T14:26:35;25.50;1.00
3308;DHT22;1666;48.898;9.182;2023-07-16T14:29:05;25.80;1.00
3308;DHT22;1666;48.898;9.182;2023-07-16T14:31:35;26.10;1.00
3308;DHT22;1666;48.898;9.182;2023-07-16T14:34:05;26.00;1.00
3308;DHT22;1666;48.898;9.182;2023-07-16T14:36:40;25.70;1.00
3308;DHT22;1666;48.898;9.182;2023-07-16T14:39:10;25.80;1.00
3308;DHT22;1666;48.898;9.182;2023-07-16T14:41:40;25.40;1.00
3308;DHT22;1666;48.898;9.182;2023-07-16T14:44:09;26.00;1.00
3308;DHT22;1666;48.898;9.182;2023-07-16T14:46:39;26.40;1.00
3308;DHT22;1666;48.898;9.182;2023-07-16T14:49:10;26.20;1.00
3308;DHT22;1666;48.898;9.182;2023-07-16T14:51:42;26.10;1.00
3308;DHT22;1666;48.898;9.182;2023-07-16T14:54:12;25.60;1.00
3308;DHT22;1666;48.898;9.182;2023-07-16T14:56:42;26.20;1.00
3308;DHT22;1666;48.898;9.182;2023-07-16T14:59:12;26.70;1.00
3308;DHT22;1666;48.898;9.182;2023-07-16T15:01:42;25.80;1.00
3308;DHT22;1666;48.898;9.182;2023-07-16T15:04:12;26.20;1.00
3308;DHT22;1666;48.898;9.182;2023-07-16T15:06:44;26.00;1.00
3308;DHT22;1666;48.898;9.182;2023-07-16T15:09:15;25.30;1.00
3308;DHT22;1666;48.898;9.182;2023-07-16T15:11:49;25.50;1.00
3308;DHT22;1666;48.898;9.182;2023-07-16T15:14:19;25.90;1.00
3308;DHT22;1666;48.898;9.182;2023-07-16T15:16:48;26.00;1.00
3308;DHT22;1666;48.898;9.182;2023-07-16T15:19:18;26.00;1.00
3308;DHT22;1666;48.898;9.182;2023-07-16T15:21:51;25.50;1.00
3308;DHT22;1666;48.898;9.182;2023-07-16T15:24:21;25.60;1.00
3308;DHT22;1666;48.898;9.182;2023-07-16T15:26:51;26.00;1.00
3308;DHT22;1666;48.898;9.182;2023-07-16T15:29:21;26.00;1.00
3308;DHT22;1666;48.898;9.182;2023-07-16T15:31:51;25.50;1.00
3308;DHT22;1666;48.898;9.182;2023-07-16T15:34:21;25.50;1.00
3308;DHT22;1666;48.898;9.182;2023-07-16T15:36:53;25.20;1.00
3308;DHT22;1666;48.898;9.182;2023-07-16T15:39:23;25.50;1.00
3308;DHT22;1666;48.898;9.182;2023-07-16T15:41:53;25.00;1.00
3308;DHT22;1666;48.898;9.182;2023-07-16T15:44:23;25.00;1.00
3308;DHT22;1666;48.898;9.182;2023-07-16T15:46:53;25.30;1.00
3308;DHT22;1666;48.898;9.182;2023-07-16T15:49:23;25.00;1.00
3308;DHT22;1666;48.898;9.182;2023-07-16T15:51:56;25.20;1.00
3308;DHT22;1666;48.898;9.182;2023-07-16T15:54:26;25.20;1.00
3308;DHT22;1666;48.898;9.182;2023-07-16T15:56:56;25.10;1.00
3308;DHT22;1666;48.898;9.182;2023-07-16T15:59:26;25.50;1.00
3308;DHT22;1666;48.898;9.182;2023-07-16T16:01:56;24.90;1.00
3308;DHT22;1666;48.898;9.182;2023-07-16T16:04:26;25.00;1.00
3308;DHT22;1666;48.898;9.182;2023-07-16T16:06:59;25.00;1.00
3308;DHT22;1666;48.898;9.182;2023-07-16T16:09:30;25.40;1.00
3308;DHT22;1666;48.898;9.182;2023-07-16T16:12:00;24.90;1.00
3308;DHT22;1666;48.898;9.182;2023-07-16T16:14:30;25.50;1.00
3308;DHT22;1666;48.898;9.182;2023-07-16T16:17:00;25.50;1.00
3308;DHT22;1666;48.898;9.182;2023-07-16T16:19:34;25.40;1.00
3308;DHT22;1666;48.898;9.182;2023-07-16T16:22:06;24.90;1.00
3308;DHT22;1666;48.898;9.182;2023-07-16T16:24:36;25.00;1.00
3308;DHT22;1666;48.898;9.182;2023-07-16T16:27:07;25.50;1.00
3308;DHT22;1666;48.898;9.182;2023-07-16T16:29:37;25.10;1.00
3308;DHT22;1666;48.898;9.182;2023-07-16T16:32:08;25.00;1.00
3308;DHT22;1666;48.898;9.182;2023-07-16T16:34:38;25.20;1.00
3308;DHT22;1666;48.898;9.182;2023-07-16T16:37:10;25.40;1.00
3308;DHT22;1666;48.898;9.182;2023-07-16T16:39:40;25.40;1.00